sensor_id;sensor_type;location;lat;lon;timestamp;P1;durP1;ratioP1;P2;durP2;ratioP2
77298;SDS011;66361;52.034;20.656;2023-11-18T00:06:03;23.80;;;12.43;;
77298;SDS011;66361;52.034;20.656;2023-11-18T00:10:07;24.92;;;13.43;;
77298;SDS011;66361;52.034;20.656;2023-11-18T00:18:16;22.48;;;12.82;;
77298;SDS011;66361;52.034;20.656;2023-11-18T00:22:20;27.65;;;14.32;;
77298;SDS011;66361;52.034;20.656;2023-11-18T00:26:23;25.23;;;13.20;;
77298;SDS011;66361;52.034;20.656;2023-11-18T00:30:27;23.35;;;12.77;;
77298;SDS011;66361;52.034;20.656;2023-11-18T00:34:32;24.50;;;14.18;;
77298;SDS011;66361;52.034;20.656;2023-11-18T00:38:35;25.00;;;13.90;;
77298;SDS011;66361;52.034;20.656;2023-11-18T00:42:39;21.02;;;12.10;;
77298;SDS011;66361;52.034;20.656;2023-11-18T00:46:44;21.02;;;12.50;;
77298;SDS011;66361;52.034;20.656;2023-11-18T00:50:48;22.77;;;10.43;;
77298;SDS011;66361;52.034;20.656;2023-11-18T00:54:53;21.98;;;12.20;;
77298;SDS011;66361;52.034;20.656;2023-11-18T00:58:55;17.83;;;10.65;;
77298;SDS011;66361;52.034;20.656;2023-11-18T01:02:59;22.30;;;12.57;;
77298;SDS011;66361;52.034;20.656;2023-11-18T01:07:03;19.23;;;11.38;;
77298;SDS011;66361;52.034;20.656;2023-11-18T01:11:06;21.45;;;10.48;;
77298;SDS011;66361;52.034;20.656;2023-11-18T01:19:13;21.95;;;12.68;;
77298;SDS011;66361;52.034;20.656;2023-11-18T01:23:18;23.25;;;12.60;;
77298;SDS011;66361;52.034;20.656;2023-11-18T01:27:22;21.92;;;12.32;;
77298;SDS011;66361;52.034;20.656;2023-11-18T01:31:25;20.10;;;10.90;;
77298;SDS011;66361;52.034;20.656;2023-11-18T01:35:40;19.30;;;11.23;;
77298;SDS011;66361;52.034;20.656;2023-11-18T01:39:46;18.42;;;10.38;;
77298;SDS011;66361;52.034;20.656;2023-11-18T01:43:49;23.58;;;14.02;;
77298;SDS011;66361;52.034;20.656;2023-11-18T01:47:54;18.08;;;11.07;;
77298;SDS011;66361;52.034;20.656;2023-11-18T01:56:05;16.60;;;10.35;;
77298;SDS011;66361;52.034;20.656;2023-11-18T02:00:10;20.17;;;11.73;;
77298;SDS011;66361;52.034;20.656;2023-11-18T02:04:15;18.52;;;10.40;;
77298;SDS011;66361;52.034;20.656;2023-11-18T02:08:21;23.95;;;14.07;;
77298;SDS011;66361;52.034;20.656;2023-11-18T02:12:29;20.83;;;10.48;;
77298;SDS011;66361;52.034;20.656;2023-11-18T02:16:38;20.20;;;10.90;;
77298;SDS011;66361;52.034;20.656;2023-11-18T02:20:43;19.65;;;9.13;;
77298;SDS011;66361;52.034;20.656;2023-11-18T02:24:48;16.40;;;10.38;;
77298;SDS011;66361;52.034;20.656;2023-11-18T02:28:53;19.88;;;10.45;;
77298;SDS011;66361;52.034;20.656;2023-11-18T02:32:58;19.60;;;10.40;;
77298;SDS011;66361;52.034;20.656;2023-11-18T02:37:07;16.38;;;10.70;;
77298;SDS011;66361;52.034;20.656;2023-11-18T02:41:12;15.52;;;10.95;;
77298;SDS011;66361;52.034;20.656;2023-11-18T02:45:21;17.30;;;11.57;;
77298;SDS011;66361;52.034;20.656;2023-11-18T02:49:25;20.00;;;10.85;;
77298;SDS011;66361;52.034;20.656;2023-11-18T02:53:29;16.98;;;10.02;;
77298;SDS011;66361;52.034;20.656;2023-11-18T02:57:32;23.58;;;12.32;;
77298;SDS011;66361;52.034;20.656;2023-11-18T03:05:41;14.20;;;7.72;;
77298;SDS011;66361;52.034;20.656;2023-11-18T03:09:44;22.27;;;11.02;;
77298;SDS011;66361;52.034;20.656;2023-11-18T03:13:48;16.40;;;8.80;;
77298;SDS011;66361;52.034;20.656;2023-11-18T03:17:53;17.38;;;8.80;;
77298;SDS011;66361;52.034;20.656;2023-11-18T03:21:56;16.08;;;9.13;;
77298;SDS011;66361;52.034;20.656;2023-11-18T03:25:59;18.02;;;10.13;;
77298;SDS011;66361;52.034;20.656;2023-11-18T03:30:02;17.23;;;10.48;;
77298;SDS011;66361;52.034;20.656;2023-11-18T03:34:09;21.02;;;10.70;;
77298;SDS011;66361;52.034;20.656;2023-11-18T03:38:12;19.45;;;11.57;;
77298;SDS011;66361;52.034;20.656;2023-11-18T03:42:15;17.38;;;10.23;;
77298;SDS011;66361;52.034;20.656;2023-11-18T03:46:17;19.65;;;9.63;;
77298;SDS011;66361;52.034;20.656;2023-11-18T03:50:22;19.15;;;10.13;;
77298;SDS011;66361;52.034;20.656;2023-11-18T03:54:25;16.48;;;8.98;;
77298;SDS011;66361;52.034;20.656;2023-11-18T03:58:28;19.70;;;10.57;;
77298;SDS011;66361;52.034;20.656;2023-11-18T04:02:34;16.67;;;10.20;;
77298;SDS011;66361;52.034;20.656;2023-11-18T04:06:39;17.83;;;9.85;;
77298;SDS011;66361;52.034;20.656;2023-11-18T04:10:42;16.10;;;9.40;;
77298;SDS011;66361;52.034;20.656;2023-11-18T04:14:45;20.40;;;11.45;;
77298;SDS011;66361;52.034;20.656;2023-11-18T04:18:48;23.40;;;11.90;;
77298;SDS011;66361;52.034;20.656;2023-11-18T04:22:53;14.82;;;10.27;;
77298;SDS011;66361;52.034;20.656;2023-11-18T04:26:57;12.95;;;8.05;;
77298;SDS011;66361;52.034;20.656;2023-11-18T04:31:00;16.35;;;8.65;;
77298;SDS011;66361;52.034;20.656;2023-11-18T04:35:04;16.30;;;9.30;;
77298;SDS011;66361;52.034;20.656;2023-11-18T04:39:12;18.15;;;10.15;;
77298;SDS011;66361;52.034;20.656;2023-11-18T04:43:17;16.50;;;8.95;;
77298;SDS011;66361;52.034;20.656;2023-11-18T04:47:35;17.08;;;9.15;;
77298;SDS011;66361;52.034;20.656;2023-11-18T04:51:40;14.50;;;8.77;;
77298;SDS011;66361;52.034;20.656;2023-11-18T04:55:44;14.70;;;8.23;;
77298;SDS011;66361;52.034;20.656;2023-11-18T04:59:47;15.65;;;8.43;;
77298;SDS011;66361;52.034;20.656;2023-11-18T05:03:50;13.20;;;8.13;;
77298;SDS011;66361;52.034;20.656;2023-11-18T05:07:53;13.52;;;6.65;;
77298;SDS011;66361;52.034;20.656;2023-11-18T05:11:58;14.07;;;8.60;;
77298;SDS011;66361;52.034;20.656;2023-11-18T05:16:01;14.85;;;9.48;;
77298;SDS011;66361;52.034;20.656;2023-11-18T05:24:10;15.88;;;8.68;;
77298;SDS011;66361;52.034;20.656;2023-11-18T05:28:17;12.32;;;7.70;;
77298;SDS011;66361;52.034;20.656;2023-11-18T05:32:21;11.10;;;7.43;;
77298;SDS011;66361;52.034;20.656;2023-11-18T05:36:24;13.40;;;7.20;;
77298;SDS011;66361;52.034;20.656;2023-11-18T05:40:31;12.35;;;7.53;;
77298;SDS011;66361;52.034;20.656;2023-11-18T05:44:38;11.90;;;8.80;;
77298;SDS011;66361;52.034;20.656;2023-11-18T05:48:43;10.93;;;7.70;;
77298;SDS011;66361;52.034;20.656;2023-11-18T05:52:46;12.55;;;8.50;;
77298;SDS011;66361;52.034;20.656;2023-11-18T05:56:50;12.05;;;7.75;;
77298;SDS011;66361;52.034;20.656;2023-11-18T06:00:58;11.18;;;8.02;;
77298;SDS011;66361;52.034;20.656;2023-11-18T06:05:02;12.70;;;8.90;;
77298;SDS011;66361;52.034;20.656;2023-11-18T06:09:07;12.23;;;6.95;;
77298;SDS011;66361;52.034;20.656;2023-11-18T06:13:19;14.07;;;8.40;;
77298;SDS011;66361;52.034;20.656;2023-11-18T06:17:24;15.35;;;9.38;;
77298;SDS011;66361;52.034;20.656;2023-11-18T06:21:29;12.45;;;7.93;;
77298;SDS011;66361;52.034;20.656;2023-11-18T06:25:32;13.73;;;9.27;;
77298;SDS011;66361;52.034;20.656;2023-11-18T06:29:36;12.70;;;10.05;;
77298;SDS011;66361;52.034;20.656;2023-11-18T06:33:44;14.10;;;8.73;;
77298;SDS011;66361;52.034;20.656;2023-11-18T06:37:49;15.98;;;8.88;;
77298;SDS011;66361;52.034;20.656;2023-11-18T06:41:53;12.05;;;7.22;;
77298;SDS011;66361;52.034;20.656;2023-11-18T06:45:55;10.95;;;8.95;;
77298;SDS011;66361;52.034;20.656;2023-11-18T06:50:00;12.63;;;8.63;;
77298;SDS011;66361;52.034;20.656;2023-11-18T06:54:03;13.60;;;8.18;;
77298;SDS011;66361;52.034;20.656;2023-11-18T06:58:11;12.32;;;8.43;;
77298;SDS011;66361;52.034;20.656;2023-11-18T07:02:17;11.25;;;7.03;;
77298;SDS011;66361;52.034;20.656;2023-11-18T07:06:23;11.27;;;7.03;;
77298;SDS011;66361;52.034;20.656;2023-11-18T07:10:28;8.60;;;7.35;;
77298;SDS011;66361;52.034;20.656;2023-11-18T07:14:30;10.00;;;6.70;;
77298;SDS011;66361;52.034;20.656;2023-11-18T07:18:34;10.15;;;7.00;;
77298;SDS011;66361;52.034;20.656;2023-11-18T07:22:39;9.75;;;6.68;;
77298;SDS011;66361;52.034;20.656;2023-11-18T07:26:42;12.35;;;7.78;;
77298;SDS011;66361;52.034;20.656;2023-11-18T07:30:46;11.48;;;7.72;;
77298;SDS011;66361;52.034;20.656;2023-11-18T07:34:50;8.00;;;6.63;;
77298;SDS011;66361;52.034;20.656;2023-11-18T07:38:54;12.52;;;8.85;;
77298;SDS011;66361;52.034;20.656;2023-11-18T07:43:00;8.50;;;7.38;;
77298;SDS011;66361;52.034;20.656;2023-11-18T07:47:04;8.77;;;6.63;;
77298;SDS011;66361;52.034;20.656;2023-11-18T07:51:07;9.32;;;6.72;;
77298;SDS011;66361;52.034;20.656;2023-11-18T07:55:11;8.48;;;6.55;;
77298;SDS011;66361;52.034;20.656;2023-11-18T07:59:16;10.57;;;7.10;;
77298;SDS011;66361;52.034;20.656;2023-11-18T08:03:19;10.18;;;8.43;;
77298;SDS011;66361;52.034;20.656;2023-11-18T08:07:22;9.75;;;7.53;;
77298;SDS011;66361;52.034;20.656;2023-11-18T08:11:26;8.48;;;6.70;;
77298;SDS011;66361;52.034;20.656;2023-11-18T08:15:30;9.35;;;7.35;;
77298;SDS011;66361;52.034;20.656;2023-11-18T08:19:33;10.27;;;8.13;;
77298;SDS011;66361;52.034;20.656;2023-11-18T08:23:37;8.82;;;6.15;;
77298;SDS011;66361;52.034;20.656;2023-11-18T08:27:41;8.82;;;6.57;;
77298;SDS011;66361;52.034;20.656;2023-11-18T08:31:44;10.00;;;6.28;;
77298;SDS011;66361;52.034;20.656;2023-11-18T08:35:48;11.52;;;7.82;;
77298;SDS011;66361;52.034;20.656;2023-11-18T08:39:52;7.72;;;6.30;;
77298;SDS011;66361;52.034;20.656;2023-11-18T08:43:56;11.13;;;7.80;;
77298;SDS011;66361;52.034;20.656;2023-11-18T08:48:18;7.65;;;6.63;;
77298;SDS011;66361;52.034;20.656;2023-11-18T08:52:21;10.02;;;6.65;;
77298;SDS011;66361;52.034;20.656;2023-11-18T08:56:26;9.65;;;6.80;;
77298;SDS011;66361;52.034;20.656;2023-11-18T09:00:37;10.85;;;7.00;;
77298;SDS011;66361;52.034;20.656;2023-11-18T09:04:51;9.13;;;6.80;;
77298;SDS011;66361;52.034;20.656;2023-11-18T09:08:56;10.18;;;8.23;;
77298;SDS011;66361;52.034;20.656;2023-11-18T09:13:03;10.18;;;7.68;;
77298;SDS011;66361;52.034;20.656;2023-11-18T09:17:08;7.88;;;6.75;;
77298;SDS011;66361;52.034;20.656;2023-11-18T09:21:12;11.18;;;8.38;;
77298;SDS011;66361;52.034;20.656;2023-11-18T09:25:17;12.35;;;9.10;;
77298;SDS011;66361;52.034;20.656;2023-11-18T09:29:23;12.25;;;7.90;;
77298;SDS011;66361;52.034;20.656;2023-11-18T09:33:28;12.02;;;7.45;;
77298;SDS011;66361;52.034;20.656;2023-11-18T09:37:34;10.52;;;6.57;;
77298;SDS011;66361;52.034;20.656;2023-11-18T09:41:38;11.30;;;7.90;;
77298;SDS011;66361;52.034;20.656;2023-11-18T09:45:41;13.18;;;7.70;;
77298;SDS011;66361;52.034;20.656;2023-11-18T09:49:50;10.93;;;7.38;;
77298;SDS011;66361;52.034;20.656;2023-11-18T09:53:59;11.93;;;7.22;;
77298;SDS011;66361;52.034;20.656;2023-11-18T09:58:04;8.55;;;7.38;;
77298;SDS011;66361;52.034;20.656;2023-11-18T10:02:14;9.68;;;6.75;;
77298;SDS011;66361;52.034;20.656;2023-11-18T10:06:21;9.82;;;7.40;;
77298;SDS011;66361;52.034;20.656;2023-11-18T10:10:25;11.50;;;7.13;;
77298;SDS011;66361;52.034;20.656;2023-11-18T10:14:40;8.55;;;6.70;;
77298;SDS011;66361;52.034;20.656;2023-11-18T10:18:45;9.55;;;6.50;;
77298;SDS011;66361;52.034;20.656;2023-11-18T10:23:06;10.73;;;7.38;;
77298;SDS011;66361;52.034;20.656;2023-11-18T10:27:12;8.38;;;6.50;;
77298;SDS011;66361;52.034;20.656;2023-11-18T10:31:18;9.30;;;7.25;;
77298;SDS011;66361;52.034;20.656;2023-11-18T10:35:21;10.80;;;8.77;;
77298;SDS011;66361;52.034;20.656;2023-11-18T10:39:28;8.95;;;6.43;;
77298;SDS011;66361;52.034;20.656;2023-11-18T10:43:33;12.85;;;7.80;;
77298;SDS011;66361;52.034;20.656;2023-11-18T10:47:37;10.85;;;7.88;;
77298;SDS011;66361;52.034;20.656;2023-11-18T10:51:45;11.10;;;8.45;;
77298;SDS011;66361;52.034;20.656;2023-11-18T10:55:50;10.82;;;7.38;;
77298;SDS011;66361;52.034;20.656;2023-11-18T10:59:59;13.57;;;9.43;;
77298;SDS011;66361;52.034;20.656;2023-11-18T11:04:05;12.43;;;7.88;;
77298;SDS011;66361;52.034;20.656;2023-11-18T11:08:08;11.10;;;7.90;;
77298;SDS011;66361;52.034;20.656;2023-11-18T11:12:15;9.40;;;7.25;;
77298;SDS011;66361;52.034;20.656;2023-11-18T11:16:20;11.75;;;7.18;;
77298;SDS011;66361;52.034;20.656;2023-11-18T11:20:31;10.57;;;8.25;;
77298;SDS011;66361;52.034;20.656;2023-11-18T11:24:49;11.90;;;7.38;;
77298;SDS011;66361;52.034;20.656;2023-11-18T11:29:07;12.30;;;8.93;;
77298;SDS011;66361;52.034;20.656;2023-11-18T11:33:22;11.57;;;6.68;;
77298;SDS011;66361;52.034;20.656;2023-11-18T11:37:42;13.98;;;8.88;;
77298;SDS011;66361;52.034;20.656;2023-11-18T11:41:50;13.65;;;9.57;;
77298;SDS011;66361;52.034;20.656;2023-11-18T11:45:57;13.88;;;9.18;;
77298;SDS011;66361;52.034;20.656;2023-11-18T11:50:01;12.43;;;9.25;;
77298;SDS011;66361;52.034;20.656;2023-11-18T11:54:12;12.50;;;8.73;;
77298;SDS011;66361;52.034;20.656;2023-11-18T11:58:25;14.18;;;9.80;;
77298;SDS011;66361;52.034;20.656;2023-11-18T12:02:31;14.25;;;9.02;;
77298;SDS011;66361;52.034;20.656;2023-11-18T12:06:35;14.07;;;10.45;;
77298;SDS011;66361;52.034;20.656;2023-11-18T12:10:50;11.93;;;8.68;;
77298;SDS011;66361;52.034;20.656;2023-11-18T12:14:55;10.43;;;7.57;;
77298;SDS011;66361;52.034;20.656;2023-11-18T12:23:38;13.18;;;9.43;;
77298;SDS011;66361;52.034;20.656;2023-11-18T12:28:27;17.83;;;11.10;;
77298;SDS011;66361;52.034;20.656;2023-11-18T12:41:48;13.75;;;11.00;;
77298;SDS011;66361;52.034;20.656;2023-11-18T12:50:51;16.63;;;9.77;;
77298;SDS011;66361;52.034;20.656;2023-11-18T12:54:55;17.38;;;11.07;;
77298;SDS011;66361;52.034;20.656;2023-11-18T12:59:00;14.82;;;11.02;;
77298;SDS011;66361;52.034;20.656;2023-11-18T13:03:07;17.67;;;10.23;;
77298;SDS011;66361;52.034;20.656;2023-11-18T13:07:11;17.75;;;9.48;;
77298;SDS011;66361;52.034;20.656;2023-11-18T13:11:16;17.08;;;10.40;;
77298;SDS011;66361;52.034;20.656;2023-11-18T13:15:19;15.77;;;10.88;;
77298;SDS011;66361;52.034;20.656;2023-11-18T13:19:26;14.13;;;9.57;;
77298;SDS011;66361;52.034;20.656;2023-11-18T13:23:29;15.02;;;9.75;;
77298;SDS011;66361;52.034;20.656;2023-11-18T13:27:34;12.32;;;8.32;;
77298;SDS011;66361;52.034;20.656;2023-11-18T13:31:39;15.23;;;8.68;;
77298;SDS011;66361;52.034;20.656;2023-11-18T13:35:42;13.65;;;9.35;;
77298;SDS011;66361;52.034;20.656;2023-11-18T13:39:53;13.95;;;8.05;;
77298;SDS011;66361;52.034;20.656;2023-11-18T13:43:58;21.23;;;13.48;;
77298;SDS011;66361;52.034;20.656;2023-11-18T13:48:02;20.88;;;11.98;;
77298;SDS011;66361;52.034;20.656;2023-11-18T13:52:05;15.95;;;10.27;;
77298;SDS011;66361;52.034;20.656;2023-11-18T13:56:12;14.70;;;11.60;;
77298;SDS011;66361;52.034;20.656;2023-11-18T14:00:18;16.50;;;11.15;;
77298;SDS011;66361;52.034;20.656;2023-11-18T14:04:24;19.17;;;10.93;;
77298;SDS011;66361;52.034;20.656;2023-11-18T14:08:30;16.85;;;9.30;;
77298;SDS011;66361;52.034;20.656;2023-11-18T14:12:35;15.77;;;8.98;;
77298;SDS011;66361;52.034;20.656;2023-11-18T14:16:39;14.68;;;8.30;;
77298;SDS011;66361;52.034;20.656;2023-11-18T14:20:43;20.98;;;11.30;;
77298;SDS011;66361;52.034;20.656;2023-11-18T14:24:48;17.25;;;10.73;;
77298;SDS011;66361;52.034;20.656;2023-11-18T14:28:51;20.45;;;11.50;;
77298;SDS011;66361;52.034;20.656;2023-11-18T14:32:55;19.00;;;11.88;;
77298;SDS011;66361;52.034;20.656;2023-11-18T14:36:58;19.95;;;11.95;;
77298;SDS011;66361;52.034;20.656;2023-11-18T14:41:02;17.70;;;10.35;;
77298;SDS011;66361;52.034;20.656;2023-11-18T14:45:06;18.17;;;10.85;;
77298;SDS011;66361;52.034;20.656;2023-11-18T14:49:12;19.58;;;11.85;;
77298;SDS011;66361;52.034;20.656;2023-11-18T14:53:15;20.85;;;10.93;;
77298;SDS011;66361;52.034;20.656;2023-11-18T14:57:18;16.55;;;11.98;;
77298;SDS011;66361;52.034;20.656;2023-11-18T15:01:22;21.15;;;12.18;;
77298;SDS011;66361;52.034;20.656;2023-11-18T15:05:26;18.20;;;11.13;;
77298;SDS011;66361;52.034;20.656;2023-11-18T15:09:29;18.65;;;11.18;;
77298;SDS011;66361;52.034;20.656;2023-11-18T15:13:33;17.40;;;10.85;;
77298;SDS011;66361;52.034;20.656;2023-11-18T15:17:36;19.27;;;11.27;;
77298;SDS011;66361;52.034;20.656;2023-11-18T15:21:49;17.48;;;8.73;;
77298;SDS011;66361;52.034;20.656;2023-11-18T15:25:54;10.90;;;7.57;;
77298;SDS011;66361;52.034;20.656;2023-11-18T15:29:58;19.45;;;12.20;;
77298;SDS011;66361;52.034;20.656;2023-11-18T15:34:03;19.83;;;11.95;;
77298;SDS011;66361;52.034;20.656;2023-11-18T15:38:08;21.15;;;12.38;;
77298;SDS011;66361;52.034;20.656;2023-11-18T15:42:11;13.40;;;11.82;;
77298;SDS011;66361;52.034;20.656;2023-11-18T15:46:14;20.33;;;10.88;;
77298;SDS011;66361;52.034;20.656;2023-11-18T15:50:19;19.23;;;11.45;;
77298;SDS011;66361;52.034;20.656;2023-11-18T15:54:24;22.25;;;13.60;;
77298;SDS011;66361;52.034;20.656;2023-11-18T15:58:27;24.40;;;13.50;;
77298;SDS011;66361;52.034;20.656;2023-11-18T16:02:30;25.20;;;13.95;;
77298;SDS011;66361;52.034;20.656;2023-11-18T16:06:34;25.58;;;11.70;;
77298;SDS011;66361;52.034;20.656;2023-11-18T16:10:40;31.13;;;14.43;;
77298;SDS011;66361;52.034;20.656;2023-11-18T16:14:44;34.05;;;15.05;;
77298;SDS011;66361;52.034;20.656;2023-11-18T16:18:48;31.35;;;17.25;;
77298;SDS011;66361;52.034;20.656;2023-11-18T16:22:55;25.25;;;13.50;;
77298;SDS011;66361;52.034;20.656;2023-11-18T16:27:00;30.85;;;15.95;;
77298;SDS011;66361;52.034;20.656;2023-11-18T16:31:05;24.67;;;14.38;;
77298;SDS011;66361;52.034;20.656;2023-11-18T16:35:08;25.38;;;13.25;;
77298;SDS011;66361;52.034;20.656;2023-11-18T16:39:13;20.55;;;11.05;;
77298;SDS011;66361;52.034;20.656;2023-11-18T16:43:20;26.17;;;14.20;;
77298;SDS011;66361;52.034;20.656;2023-11-18T16:47:23;27.55;;;15.63;;
77298;SDS011;66361;52.034;20.656;2023-11-18T16:51:26;22.92;;;12.73;;
77298;SDS011;66361;52.034;20.656;2023-11-18T16:55:29;29.38;;;16.73;;
77298;SDS011;66361;52.034;20.656;2023-11-18T16:59:36;22.02;;;12.20;;
77298;SDS011;66361;52.034;20.656;2023-11-18T17:03:39;26.30;;;14.15;;
77298;SDS011;66361;52.034;20.656;2023-11-18T17:07:43;26.35;;;14.35;;
77298;SDS011;66361;52.034;20.656;2023-11-18T17:11:46;23.02;;;13.15;;
77298;SDS011;66361;52.034;20.656;2023-11-18T17:15:52;25.77;;;15.25;;
77298;SDS011;66361;52.034;20.656;2023-11-18T17:19:55;25.52;;;15.15;;
77298;SDS011;66361;52.034;20.656;2023-11-18T17:23:58;26.50;;;14.60;;
77298;SDS011;66361;52.034;20.656;2023-11-18T17:32:07;25.77;;;13.13;;
77298;SDS011;66361;52.034;20.656;2023-11-18T17:36:10;26.55;;;12.82;;
77298;SDS011;66361;52.034;20.656;2023-11-18T17:40:14;24.55;;;13.73;;
77298;SDS011;66361;52.034;20.656;2023-11-18T17:44:19;25.08;;;12.75;;
77298;SDS011;66361;52.034;20.656;2023-11-18T17:48:24;25.05;;;14.77;;
77298;SDS011;66361;52.034;20.656;2023-11-18T17:52:27;26.00;;;15.57;;
77298;SDS011;66361;52.034;20.656;2023-11-18T17:56:30;23.52;;;13.80;;
77298;SDS011;66361;52.034;20.656;2023-11-18T18:00:33;27.85;;;14.55;;
77298;SDS011;66361;52.034;20.656;2023-11-18T18:04:38;28.77;;;15.65;;
77298;SDS011;66361;52.034;20.656;2023-11-18T18:08:42;25.13;;;13.82;;
77298;SDS011;66361;52.034;20.656;2023-11-18T18:12:45;23.42;;;13.35;;
77298;SDS011;66361;52.034;20.656;2023-11-18T18:16:49;24.90;;;13.07;;
77298;SDS011;66361;52.034;20.656;2023-11-18T18:20:53;29.63;;;14.82;;
77298;SDS011;66361;52.034;20.656;2023-11-18T18:24:56;33.33;;;17.17;;
77298;SDS011;66361;52.034;20.656;2023-11-18T18:28:59;33.40;;;17.35;;
77298;SDS011;66361;52.034;20.656;2023-11-18T18:33:02;26.30;;;14.80;;
77298;SDS011;66361;52.034;20.656;2023-11-18T18:37:08;30.65;;;15.27;;
77298;SDS011;66361;52.034;20.656;2023-11-18T18:41:11;28.20;;;19.23;;
77298;SDS011;66361;52.034;20.656;2023-11-18T18:49:19;30.80;;;14.15;;
77298;SDS011;66361;52.034;20.656;2023-11-18T18:53:24;29.58;;;16.98;;
77298;SDS011;66361;52.034;20.656;2023-11-18T18:57:28;31.83;;;17.75;;
77298;SDS011;66361;52.034;20.656;2023-11-18T19:01:31;36.63;;;19.00;;
77298;SDS011;66361;52.034;20.656;2023-11-18T19:05:34;28.58;;;16.45;;
77298;SDS011;66361;52.034;20.656;2023-11-18T19:09:39;26.85;;;14.77;;
77298;SDS011;66361;52.034;20.656;2023-11-18T19:13:42;26.38;;;12.52;;
77298;SDS011;66361;52.034;20.656;2023-11-18T19:17:46;28.15;;;15.02;;
77298;SDS011;66361;52.034;20.656;2023-11-18T19:21:48;24.95;;;13.68;;
77298;SDS011;66361;52.034;20.656;2023-11-18T19:25:54;29.10;;;14.90;;
77298;SDS011;66361;52.034;20.656;2023-11-18T19:29:57;31.15;;;17.60;;
77298;SDS011;66361;52.034;20.656;2023-11-18T19:34:00;27.17;;;14.90;;
77298;SDS011;66361;52.034;20.656;2023-11-18T19:38:03;32.47;;;16.08;;
77298;SDS011;66361;52.034;20.656;2023-11-18T19:42:10;27.95;;;15.02;;
77298;SDS011;66361;52.034;20.656;2023-11-18T19:46:13;23.23;;;12.43;;
77298;SDS011;66361;52.034;20.656;2023-11-18T19:50:17;28.55;;;13.15;;
77298;SDS011;66361;52.034;20.656;2023-11-18T19:54:23;32.40;;;16.48;;
77298;SDS011;66361;52.034;20.656;2023-11-18T19:58:28;27.45;;;17.88;;
77298;SDS011;66361;52.034;20.656;2023-11-18T20:02:31;33.55;;;17.50;;
77298;SDS011;66361;52.034;20.656;2023-11-18T20:06:34;34.15;;;18.08;;
77298;SDS011;66361;52.034;20.656;2023-11-18T20:10:37;33.90;;;16.60;;
77298;SDS011;66361;52.034;20.656;2023-11-18T20:14:42;30.52;;;14.82;;
77298;SDS011;66361;52.034;20.656;2023-11-18T20:18:45;33.72;;;16.77;;
77298;SDS011;66361;52.034;20.656;2023-11-18T20:22:49;33.00;;;16.65;;
77298;SDS011;66361;52.034;20.656;2023-11-18T20:26:56;36.58;;;16.65;;
77298;SDS011;66361;52.034;20.656;2023-11-18T20:31:01;25.90;;;14.32;;
77298;SDS011;66361;52.034;20.656;2023-11-18T20:35:06;35.05;;;19.30;;
77298;SDS011;66361;52.034;20.656;2023-11-18T20:39:09;31.30;;;17.05;;
77298;SDS011;66361;52.034;20.656;2023-11-18T20:43:18;38.85;;;21.15;;
77298;SDS011;66361;52.034;20.656;2023-11-18T20:47:23;33.38;;;15.98;;
77298;SDS011;66361;52.034;20.656;2023-11-18T20:51:26;36.90;;;19.30;;
77298;SDS011;66361;52.034;20.656;2023-11-18T20:55:30;30.90;;;17.33;;
77298;SDS011;66361;52.034;20.656;2023-11-18T20:59:33;35.03;;;17.77;;
77298;SDS011;66361;52.034;20.656;2023-11-18T21:03:38;29.88;;;16.05;;
77298;SDS011;66361;52.034;20.656;2023-11-18T21:07:42;37.95;;;20.08;;
77298;SDS011;66361;52.034;20.656;2023-11-18T21:11:45;41.30;;;18.23;;
77298;SDS011;66361;52.034;20.656;2023-11-18T21:15:49;41.28;;;21.25;;
77298;SDS011;66361;52.034;20.656;2023-11-18T21:19:53;32.72;;;16.75;;
77298;SDS011;66361;52.034;20.656;2023-11-18T21:23:57;36.05;;;18.95;;
77298;SDS011;66361;52.034;20.656;2023-11-18T21:28:04;35.17;;;19.23;;
77298;SDS011;66361;52.034;20.656;2023-11-18T21:32:07;31.80;;;17.27;;
77298;SDS011;66361;52.034;20.656;2023-11-18T21:36:13;36.25;;;18.95;;
77298;SDS011;66361;52.034;20.656;2023-11-18T21:40:20;32.85;;;17.75;;
77298;SDS011;66361;52.034;20.656;2023-11-18T21:44:26;41.67;;;18.92;;
77298;SDS011;66361;52.034;20.656;2023-11-18T21:48:29;33.33;;;21.67;;
77298;SDS011;66361;52.034;20.656;2023-11-18T21:52:33;33.05;;;16.63;;
77298;SDS011;66361;52.034;20.656;2023-11-18T21:56:37;33.05;;;15.90;;
77298;SDS011;66361;52.034;20.656;2023-11-18T22:00:42;30.85;;;15.38;;
77298;SDS011;66361;52.034;20.656;2023-11-18T22:04:45;38.17;;;16.95;;
77298;SDS011;66361;52.034;20.656;2023-11-18T22:08:50;29.85;;;17.30;;
77298;SDS011;66361;52.034;20.656;2023-11-18T22:12:53;33.28;;;15.13;;
77298;SDS011;66361;52.034;20.656;2023-11-18T22:16:57;30.13;;;16.45;;
77298;SDS011;66361;52.034;20.656;2023-11-18T22:21:01;33.05;;;16.00;;
77298;SDS011;66361;52.034;20.656;2023-11-18T22:29:10;32.85;;;14.30;;
77298;SDS011;66361;52.034;20.656;2023-11-18T22:33:12;29.92;;;15.75;;
77298;SDS011;66361;52.034;20.656;2023-11-18T22:37:25;37.75;;;18.35;;
77298;SDS011;66361;52.034;20.656;2023-11-18T22:41:30;34.95;;;17.00;;
77298;SDS011;66361;52.034;20.656;2023-11-18T22:45:33;32.05;;;16.13;;
77298;SDS011;66361;52.034;20.656;2023-11-18T22:49:38;32.45;;;18.45;;
77298;SDS011;66361;52.034;20.656;2023-11-18T22:53:42;37.42;;;18.38;;
77298;SDS011;66361;52.034;20.656;2023-11-18T22:57:46;30.90;;;18.55;;
77298;SDS011;66361;52.034;20.656;2023-11-18T23:01:49;31.13;;;18.88;;
77298;SDS011;66361;52.034;20.656;2023-11-18T23:05:52;36.47;;;18.98;;
77298;SDS011;66361;52.034;20.656;2023-11-18T23:09:55;33.85;;;18.20;;
77298;SDS011;66361;52.034;20.656;2023-11-18T23:14:00;34.35;;;16.45;;
77298;SDS011;66361;52.034;20.656;2023-11-18T23:18:05;41.88;;;19.67;;
77298;SDS011;66361;52.034;20.656;2023-11-18T23:22:09;40.22;;;19.17;;
77298;SDS011;66361;52.034;20.656;2023-11-18T23:26:12;35.75;;;19.02;;
77298;SDS011;66361;52.034;20.656;2023-11-18T23:30:17;35.17;;;16.70;;
77298;SDS011;66361;52.034;20.656;2023-11-18T23:34:22;36.25;;;19.27;;
77298;SDS011;66361;52.034;20.656;2023-11-18T23:38:30;33.33;;;15.70;;
77298;SDS011;66361;52.034;20.656;2023-11-18T23:42:33;35.22;;;16.30;;
77298;SDS011;66361;52.034;20.656;2023-11-18T23:46:38;40.45;;;18.50;;
77298;SDS011;66361;52.034;20.656;2023-11-18T23:50:41;29.77;;;13.82;;
77298;SDS011;66361;52.034;20.656;2023-11-18T23:54:44;31.77;;;14.63;;
77298;SDS011;66361;52.034;20.656;2023-11-18T23:58:49;43.65;;;18.33;;
